High Level, Canada
Current Conditions -  °F | °C
As of 3:00 AM on Friday 31 Oct 2014 (Local Time) from CYOJ Reporting Station
Overcast Overcast  
Wind Chill: 28°   Ceiling: 2000
Heat Index: 36°   Visibility: 9mi
Dew Point: 34°   Wind: 10mph
Humidity: 93%   Direction: 140°SE
Pressure: 29.65"   Gusts: 17mph
Location:  58.52°N, 117.13°W
Report Text: CYOJ 310900Z AUTO 14009G15KT 9SM OVC020 02/01 A2965 RMK SLP057
Loading
Personal Weather Stations






























Interactive Weather Map
Tropical Storm Tracking
New forecast layout! Learn more

10-Day Weather Forecast

Advertisements
Track Severe Weather on mobile